Franklin, VA

4:18 AM EST on March 06, 2015 (GMT -0500)
Aaron's Weather Service | Change Station
CLOSE
Current Station
Personal Weather Station
Location: Franklin, VA
Elevation: 98 ft
Nearby Weather Stations
Active Advisory: Special Statement

Elev 98 ft 36.70 °N, 76.96 °W | Updated 17 seconds ago

Scattered Clouds
Scattered Clouds
21.6 °F
Feels Like 13 °F
N
6.7
Wind Variable Wind from NNE
Gusts 13.8 mph

Today
High -- | Low -- °F
--% Chance of Precip.
Yesterday
High -- | Low -- °F
Precip. -- in
6:31 AM 6:06 PM
Full, 100% visible
Pressure 30.44 in
Visibility 10.0 miles
Clouds Scattered Clouds 8500 ft
Windchill 13 °F
Dew Point 16 °F
Humidity 78%
Rainfall in
Snow Depth Not available.
UV 0 out of 12
Pollen 1.00 out of 12
Air Quality Not available.
Flu Activity Not available.
METAR KFKN 060855Z AUTO 35006KT 10SM SCT085 M05/M09 A3044 RMK AO2 T10501089

More Conditions Fewer Conditions

Pressure 30.44 in
Visibility 10.0 miles
Clouds Scattered Clouds 8500 ft
Windchill 13 °F
Dew Point 16 °F
Humidity 78%
Rainfall in
Snow Depth Not available.
UV 0 out of 12
Pollen 1.00 out of 12
Air Quality Not available.
Flu Activity Not available.
METAR KFKN 060855Z AUTO 35006KT 10SM SCT085 M05/M09 A3044 RMK AO2 T10501089

More Conditions Fewer Conditions

10-Day Weather Forecast

Almanac

Astronomy

Mar. 06, 2015 Rise Set
Actual Time
Civil Twilight
Nautical Twilight
Astronomical Twilight
Moon
Length of Visible Light
Length of Day
Tomorrow will be .
, % of the Moon is Illuminated

Today's Extremes

State Highs State Lows

Community

WunderPhotos

Upload Photos

1,803,212 photos uploaded!

WunderBlogs® & News

Nearby

Air Quality

  Air Quality AQ Index Pollutant
Not available.

Snow Depth

Station Depth Elevation

Earthquake Activity

City Distance Mag. Time & Date
Minimum magnitude displayed is 2.5.

Coastal Water Temperatures

Place Temperature

Nearby Weather Stations

Special Statement
Statement as of 9:21 PM EST on March 05, 2015

... Areas of black ice tonight and early Friday...

Temperatures will quickly drop into the teens to around 20 degrees
after midnight. This will allow areas of slush and water to refreeze
into ice overnight making for slippery conditions on roads and
sidewalks through Friday morning. Anyone planning to venture out
should be alert for areas of ice especially near bridges and
overpasses as well as along secondary roads.



921 PM EST Thu Mar 5 2015

... Areas of black ice tonight and early Friday...

Temperatures will quickly drop into the teens to around 20 degrees
after midnight. This will allow areas of slush and water to refreeze
into ice overnight making for slippery conditions on roads and
sidewalks through Friday morning. Anyone planning to venture out
should be alert for areas of ice especially near bridges and
overpasses as well as along secondary roads.